sensor_id;sensor_type;location;lat;lon;timestamp;temperature;humidity
21417;DHT22;10869;52.238;10.716;2023-02-24T04:05:30;3.10;99.90
21417;DHT22;10869;52.238;10.716;2023-02-24T04:08:06;3.10;99.90
21417;DHT22;10869;52.238;10.716;2023-02-24T04:11:00;3.10;99.90
21417;DHT22;10869;52.238;10.716;2023-02-24T04:13:49;3.10;99.90
21417;DHT22;10869;52.238;10.716;2023-02-24T04:16:19;3.10;99.90
21417;DHT22;10869;52.238;10.716;2023-02-24T04:18:56;3.10;99.90
21417;DHT22;10869;52.238;10.716;2023-02-24T04:21:26;3.10;99.90
21417;DHT22;10869;52.238;10.716;2023-02-24T04:23:53;3.10;99.90
21417;DHT22;10869;52.238;10.716;2023-02-24T04:26:21;3.10;99.90
21417;DHT22;10869;52.238;10.716;2023-02-24T04:28:49;3.10;99.90
21417;DHT22;10869;52.238;10.716;2023-02-24T04:31:18;3.10;99.90
21417;DHT22;10869;52.238;10.716;2023-02-24T04:33:48;3.10;99.90
21417;DHT22;10869;52.238;10.716;2023-02-24T04:36:19;3.10;99.90
21417;DHT22;10869;52.238;10.716;2023-02-24T04:38:45;3.10;99.90
21417;DHT22;10869;52.238;10.716;2023-02-24T04:41:13;3.10;99.90
21417;DHT22;10869;52.238;10.716;2023-02-24T04:43:48;3.10;99.90
21417;DHT22;10869;52.238;10.716;2023-02-24T04:46:18;3.10;99.90
21417;DHT22;10869;52.238;10.716;2023-02-24T04:48:44;3.10;99.90
21417;DHT22;10869;52.238;10.716;2023-02-24T04:51:10;3.10;99.90
21417;DHT22;10869;52.238;10.716;2023-02-24T04:53:36;3.00;99.90
21417;DHT22;10869;52.238;10.716;2023-02-24T04:56:04;3.00;99.90
21417;DHT22;10869;52.238;10.716;2023-02-24T04:58:35;3.00;99.90
21417;DHT22;10869;52.238;10.716;2023-02-24T05:01:06;3.00;99.90
21417;DHT22;10869;52.238;10.716;2023-02-24T05:03:34;3.00;99.90
21417;DHT22;10869;52.238;10.716;2023-02-24T05:06:01;3.00;99.90
21417;DHT22;10869;52.238;10.716;2023-02-24T05:08:27;2.90;99.90
21417;DHT22;10869;52.238;10.716;2023-02-24T05:10:54;3.00;99.90
21417;DHT22;10869;52.238;10.716;2023-02-24T05:13:29;2.90;99.90
21417;DHT22;10869;52.238;10.716;2023-02-24T05:16:04;2.90;99.90
21417;DHT22;10869;52.238;10.716;2023-02-24T05:18:31;2.80;99.90
21417;DHT22;10869;52.238;10.716;2023-02-24T05:21:05;2.90;99.90
21417;DHT22;10869;52.238;10.716;2023-02-24T05:23:51;2.80;99.90
21417;DHT22;10869;52.238;10.716;2023-02-24T05:26:19;2.70;99.90
21417;DHT22;10869;52.238;10.716;2023-02-24T05:28:47;2.70;99.90
21417;DHT22;10869;52.238;10.716;2023-02-24T05:31:16;2.60;99.90
21417;DHT22;10869;52.238;10.716;2023-02-24T05:33:44;2.60;99.90
21417;DHT22;10869;52.238;10.716;2023-02-24T05:36:13;2.60;99.90
21417;DHT22;10869;52.238;10.716;2023-02-24T05:38:42;2.60;99.90
21417;DHT22;10869;52.238;10.716;2023-02-24T05:41:14;2.60;99.90
21417;DHT22;10869;52.238;10.716;2023-02-24T05:43:45;2.60;99.90
21417;DHT22;10869;52.238;10.716;2023-02-24T05:46:16;2.60;99.90
21417;DHT22;10869;52.238;10.716;2023-02-24T05:48:42;2.60;99.90
21417;DHT22;10869;52.238;10.716;2023-02-24T05:51:08;2.60;99.90
21417;DHT22;10869;52.238;10.716;2023-02-24T05:53:38;2.60;99.90
21417;DHT22;10869;52.238;10.716;2023-02-24T05:56:07;2.60;99.90
21417;DHT22;10869;52.238;10.716;2023-02-24T05:58:33;2.70;99.90
21417;DHT22;10869;52.238;10.716;2023-02-24T06:01:08;2.70;99.90
21417;DHT22;10869;52.238;10.716;2023-02-24T06:03:34;2.70;99.90
21417;DHT22;10869;52.238;10.716;2023-02-24T06:06:01;2.70;99.90
21417;DHT22;10869;52.238;10.716;2023-02-24T06:08:33;2.70;99.90
21417;DHT22;10869;52.238;10.716;2023-02-24T06:11:10;2.70;99.90
21417;DHT22;10869;52.238;10.716;2023-02-24T06:13:39;2.70;99.90
21417;DHT22;10869;52.238;10.716;2023-02-24T06:16:05;2.70;99.90
21417;DHT22;10869;52.238;10.716;2023-02-24T06:18:31;2.60;99.90
21417;DHT22;10869;52.238;10.716;2023-02-24T06:21:01;2.70;99.90
21417;DHT22;10869;52.238;10.716;2023-02-24T06:23:27;2.60;99.90
21417;DHT22;10869;52.238;10.716;2023-02-24T06:25:53;2.60;99.90
21417;DHT22;10869;52.238;10.716;2023-02-24T06:28:23;2.60;99.90
21417;DHT22;10869;52.238;10.716;2023-02-24T06:31:05;2.60;99.90
21417;DHT22;10869;52.238;10.716;2023-02-24T06:33:33;2.60;99.90
21417;DHT22;10869;52.238;10.716;2023-02-24T06:36:00;2.60;99.90
21417;DHT22;10869;52.238;10.716;2023-02-24T06:38:33;2.60;99.90
21417;DHT22;10869;52.238;10.716;2023-02-24T06:41:00;2.60;99.90
21417;DHT22;10869;52.238;10.716;2023-02-24T06:43:36;2.60;99.90
21417;DHT22;10869;52.238;10.716;2023-02-24T06:49:37;2.60;99.90
21417;DHT22;10869;52.238;10.716;2023-02-24T06:52:05;2.60;99.90
21417;DHT22;10869;52.238;10.716;2023-02-24T06:54:32;2.60;99.90
21417;DHT22;10869;52.238;10.716;2023-02-24T06:57:06;2.60;99.90
21417;DHT22;10869;52.238;10.716;2023-02-24T06:59:34;2.60;99.90
21417;DHT22;10869;52.238;10.716;2023-02-24T07:02:13;2.60;99.90
21417;DHT22;10869;52.238;10.716;2023-02-24T07:04:54;2.70;99.90
21417;DHT22;10869;52.238;10.716;2023-02-24T07:07:23;2.70;99.90
21417;DHT22;10869;52.238;10.716;2023-02-24T07:09:50;2.70;99.90
21417;DHT22;10869;52.238;10.716;2023-02-24T07:12:16;2.70;99.90
21417;DHT22;10869;52.238;10.716;2023-02-24T07:18:07;2.80;99.90
21417;DHT22;10869;52.238;10.716;2023-02-24T07:20:39;2.80;99.90
21417;DHT22;10869;52.238;10.716;2023-02-24T07:23:08;2.80;99.90
21417;DHT22;10869;52.238;10.716;2023-02-24T07:28:56;2.80;99.90
21417;DHT22;10869;52.238;10.716;2023-02-24T07:31:23;2.80;99.90
21417;DHT22;10869;52.238;10.716;2023-02-24T07:33:54;2.90;99.90
21417;DHT22;10869;52.238;10.716;2023-02-24T07:36:22;2.90;99.90
21417;DHT22;10869;52.238;10.716;2023-02-24T07:38:53;2.90;99.90
21417;DHT22;10869;52.238;10.716;2023-02-24T07:41:21;2.90;99.90
21417;DHT22;10869;52.238;10.716;2023-02-24T07:44:07;3.00;99.90
21417;DHT22;10869;52.238;10.716;2023-02-24T07:46:34;3.00;99.90
21417;DHT22;10869;52.238;10.716;2023-02-24T07:49:00;3.00;99.90
21417;DHT22;10869;52.238;10.716;2023-02-24T07:51:28;3.10;99.90
21417;DHT22;10869;52.238;10.716;2023-02-24T07:53:58;3.10;99.90
21417;DHT22;10869;52.238;10.716;2023-02-24T07:56:26;3.10;99.90
21417;DHT22;10869;52.238;10.716;2023-02-24T07:58:56;3.10;99.90
21417;DHT22;10869;52.238;10.716;2023-02-24T08:01:29;3.20;99.90
21417;DHT22;10869;52.238;10.716;2023-02-24T08:03:57;3.20;99.90
21417;DHT22;10869;52.238;10.716;2023-02-24T08:06:34;3.20;99.90
21417;DHT22;10869;52.238;10.716;2023-02-24T08:09:12;3.20;99.90
21417;DHT22;10869;52.238;10.716;2023-02-24T08:11:53;3.20;99.90
21417;DHT22;10869;52.238;10.716;2023-02-24T08:14:27;3.20;99.90
21417;DHT22;10869;52.238;10.716;2023-02-24T08:17:00;3.20;99.90
21417;DHT22;10869;52.238;10.716;2023-02-24T08:19:28;3.10;99.90
21417;DHT22;10869;52.238;10.716;2023-02-24T08:22:11;3.10;99.90
21417;DHT22;10869;52.238;10.716;2023-02-24T08:48:06;3.20;99.90
21417;DHT22;10869;52.238;10.716;2023-02-24T08:50:43;3.20;99.90
21417;DHT22;10869;52.238;10.716;2023-02-24T08:53:13;3.30;99.90
21417;DHT22;10869;52.238;10.716;2023-02-24T08:55:48;3.20;99.90
21417;DHT22;10869;52.238;10.716;2023-02-24T08:58:18;3.30;99.90
21417;DHT22;10869;52.238;10.716;2023-02-24T09:03:22;3.40;99.90
21417;DHT22;10869;52.238;10.716;2023-02-24T09:08:36;3.40;99.90
21417;DHT22;10869;52.238;10.716;2023-02-24T09:11:14;3.40;99.90
21417;DHT22;10869;52.238;10.716;2023-02-24T09:13:45;3.40;99.90
21417;DHT22;10869;52.238;10.716;2023-02-24T09:16:18;3.40;99.90
21417;DHT22;10869;52.238;10.716;2023-02-24T09:18:45;3.30;99.90
21417;DHT22;10869;52.238;10.716;2023-02-24T09:21:31;3.30;99.90
21417;DHT22;10869;52.238;10.716;2023-02-24T09:24:31;3.40;99.90
21417;DHT22;10869;52.238;10.716;2023-02-24T09:26:57;3.40;99.90
21417;DHT22;10869;52.238;10.716;2023-02-24T09:29:26;3.40;99.90
21417;DHT22;10869;52.238;10.716;2023-02-24T09:32:04;3.40;99.90
21417;DHT22;10869;52.238;10.716;2023-02-24T09:34:32;3.40;99.90
21417;DHT22;10869;52.238;10.716;2023-02-24T09:36:58;3.40;99.90
21417;DHT22;10869;52.238;10.716;2023-02-24T09:39:50;3.30;99.90
21417;DHT22;10869;52.238;10.716;2023-02-24T09:42:28;3.40;99.90
21417;DHT22;10869;52.238;10.716;2023-02-24T09:45:20;3.30;99.90
21417;DHT22;10869;52.238;10.716;2023-02-24T09:50:32;3.20;99.90
21417;DHT22;10869;52.238;10.716;2023-02-24T09:53:16;3.10;99.90
21417;DHT22;10869;52.238;10.716;2023-02-24T09:55:44;3.10;99.90
21417;DHT22;10869;52.238;10.716;2023-02-24T10:03:55;3.00;99.90
21417;DHT22;10869;52.238;10.716;2023-02-24T10:06:43;2.90;99.90
21417;DHT22;10869;52.238;10.716;2023-02-24T10:09:34;2.90;99.90
21417;DHT22;10869;52.238;10.716;2023-02-24T10:12:24;2.80;99.90
21417;DHT22;10869;52.238;10.716;2023-02-24T10:14:56;2.70;99.90
21417;DHT22;10869;52.238;10.716;2023-02-24T10:21:29;2.60;99.90
21417;DHT22;10869;52.238;10.716;2023-02-24T10:24:30;2.60;99.90
21417;DHT22;10869;52.238;10.716;2023-02-24T10:27:12;2.50;99.90
21417;DHT22;10869;52.238;10.716;2023-02-24T10:32:52;2.40;99.90
21417;DHT22;10869;52.238;10.716;2023-02-24T10:39:15;2.40;99.90
21417;DHT22;10869;52.238;10.716;2023-02-24T10:51:39;2.40;99.90
21417;DHT22;10869;52.238;10.716;2023-02-24T11:02:20;2.30;99.90
21417;DHT22;10869;52.238;10.716;2023-02-24T11:05:14;2.40;99.90
21417;DHT22;10869;52.238;10.716;2023-02-24T11:11:32;2.40;99.90
21417;DHT22;10869;52.238;10.716;2023-02-24T11:17:59;2.30;99.90
21417;DHT22;10869;52.238;10.716;2023-02-24T11:20:29;2.30;99.90
21417;DHT22;10869;52.238;10.716;2023-02-24T11:23:11;2.30;99.90
21417;DHT22;10869;52.238;10.716;2023-02-24T11:25:57;2.20;99.90
21417;DHT22;10869;52.238;10.716;2023-02-24T11:43:21;2.60;99.90
21417;DHT22;10869;52.238;10.716;2023-02-24T11:49:24;2.60;99.90
21417;DHT22;10869;52.238;10.716;2023-02-24T11:54:35;2.40;99.90
21417;DHT22;10869;52.238;10.716;2023-02-24T11:57:02;2.30;99.90
21417;DHT22;10869;52.238;10.716;2023-02-24T11:59:36;2.30;99.90
21417;DHT22;10869;52.238;10.716;2023-02-24T12:10:44;2.10;99.90
21417;DHT22;10869;52.238;10.716;2023-02-24T12:13:55;2.10;99.90
21417;DHT22;10869;52.238;10.716;2023-02-24T12:16:36;2.00;99.90
21417;DHT22;10869;52.238;10.716;2023-02-24T12:19:36;2.00;99.90
21417;DHT22;10869;52.238;10.716;2023-02-24T12:22:10;1.90;99.90
21417;DHT22;10869;52.238;10.716;2023-02-24T12:24:50;1.90;99.90
21417;DHT22;10869;52.238;10.716;2023-02-24T12:30:04;1.90;99.90
21417;DHT22;10869;52.238;10.716;2023-02-24T12:33:20;1.80;99.90
21417;DHT22;10869;52.238;10.716;2023-02-24T12:36:17;1.80;99.90
21417;DHT22;10869;52.238;10.716;2023-02-24T12:38:52;1.80;99.90
21417;DHT22;10869;52.238;10.716;2023-02-24T12:47:13;1.80;99.90
21417;DHT22;10869;52.238;10.716;2023-02-24T12:50:03;1.80;99.90
21417;DHT22;10869;52.238;10.716;2023-02-24T12:53:08;1.80;99.90
21417;DHT22;10869;52.238;10.716;2023-02-24T12:58:48;1.70;99.90
21417;DHT22;10869;52.238;10.716;2023-02-24T13:01:23;1.70;99.90
21417;DHT22;10869;52.238;10.716;2023-02-24T13:06:35;1.80;99.90
21417;DHT22;10869;52.238;10.716;2023-02-24T13:09:27;1.80;99.90
21417;DHT22;10869;52.238;10.716;2023-02-24T13:14:41;1.80;99.90
21417;DHT22;10869;52.238;10.716;2023-02-24T13:19:42;1.80;99.90
21417;DHT22;10869;52.238;10.716;2023-02-24T13:27:58;1.80;99.90
21417;DHT22;10869;52.238;10.716;2023-02-24T13:37:53;1.80;99.90
21417;DHT22;10869;52.238;10.716;2023-02-24T13:40:20;1.80;99.90
21417;DHT22;10869;52.238;10.716;2023-02-24T13:46:17;1.90;99.90
21417;DHT22;10869;52.238;10.716;2023-02-24T13:55:10;1.90;99.90
21417;DHT22;10869;52.238;10.716;2023-02-24T13:57:43;1.80;99.90
21417;DHT22;10869;52.238;10.716;2023-02-24T14:00:45;1.80;99.90
21417;DHT22;10869;52.238;10.716;2023-02-24T14:03:18;1.80;99.90
21417;DHT22;10869;52.238;10.716;2023-02-24T14:05:46;1.90;99.90
21417;DHT22;10869;52.238;10.716;2023-02-24T14:08:26;1.90;99.90
21417;DHT22;10869;52.238;10.716;2023-02-24T14:10:55;1.90;99.90
21417;DHT22;10869;52.238;10.716;2023-02-24T14:13:26;1.90;99.90
21417;DHT22;10869;52.238;10.716;2023-02-24T14:19:16;1.90;99.90
21417;DHT22;10869;52.238;10.716;2023-02-24T14:25:05;1.80;99.90
21417;DHT22;10869;52.238;10.716;2023-02-24T14:27:33;1.80;99.90
21417;DHT22;10869;52.238;10.716;2023-02-24T14:30:01;1.80;99.90
21417;DHT22;10869;52.238;10.716;2023-02-24T14:32:27;1.80;99.90
21417;DHT22;10869;52.238;10.716;2023-02-24T14:34:53;1.90;99.90
21417;DHT22;10869;52.238;10.716;2023-02-24T14:40:47;1.90;99.90
21417;DHT22;10869;52.238;10.716;2023-02-24T14:43:13;1.90;99.90
21417;DHT22;10869;52.238;10.716;2023-02-24T14:45:47;1.90;99.90
21417;DHT22;10869;52.238;10.716;2023-02-24T14:48:28;1.90;99.90
21417;DHT22;10869;52.238;10.716;2023-02-24T14:51:04;2.00;99.90
21417;DHT22;10869;52.238;10.716;2023-02-24T14:56:53;2.10;99.90
21417;DHT22;10869;52.238;10.716;2023-02-24T15:02:45;2.10;99.90
21417;DHT22;10869;52.238;10.716;2023-02-24T15:05:14;2.10;99.90
21417;DHT22;10869;52.238;10.716;2023-02-24T15:11:22;2.20;99.90
21417;DHT22;10869;52.238;10.716;2023-02-24T15:22:30;2.40;99.90
21417;DHT22;10869;52.238;10.716;2023-02-24T15:25:18;2.40;99.90
21417;DHT22;10869;52.238;10.716;2023-02-24T15:31:17;2.40;99.90
21417;DHT22;10869;52.238;10.716;2023-02-24T15:33:58;2.40;99.90
21417;DHT22;10869;52.238;10.716;2023-02-24T15:36:37;2.40;99.90
21417;DHT22;10869;52.238;10.716;2023-02-24T15:39:08;2.40;99.90
21417;DHT22;10869;52.238;10.716;2023-02-24T15:41:47;2.40;99.90
21417;DHT22;10869;52.238;10.716;2023-02-24T15:44:33;2.50;99.90
21417;DHT22;10869;52.238;10.716;2023-02-24T15:49:48;2.50;99.90
21417;DHT22;10869;52.238;10.716;2023-02-24T15:52:16;2.50;99.90
21417;DHT22;10869;52.238;10.716;2023-02-24T15:58:15;2.50;99.90
21417;DHT22;10869;52.238;10.716;2023-02-24T16:00:42;2.50;99.90
21417;DHT22;10869;52.238;10.716;2023-02-24T16:03:08;2.50;99.90
21417;DHT22;10869;52.238;10.716;2023-02-24T16:05:34;2.50;99.90
21417;DHT22;10869;52.238;10.716;2023-02-24T16:11:26;2.60;99.90
21417;DHT22;10869;52.238;10.716;2023-02-24T16:13:57;2.60;99.90
21417;DHT22;10869;52.238;10.716;2023-02-24T16:16:24;2.60;99.90
21417;DHT22;10869;52.238;10.716;2023-02-24T16:18:50;2.60;99.90
21417;DHT22;10869;52.238;10.716;2023-02-24T16:21:17;2.60;99.90
21417;DHT22;10869;52.238;10.716;2023-02-24T16:27:05;2.60;99.90
21417;DHT22;10869;52.238;10.716;2023-02-24T16:29:31;2.70;99.90
21417;DHT22;10869;52.238;10.716;2023-02-24T16:31:56;2.60;99.90
21417;DHT22;10869;52.238;10.716;2023-02-24T16:34:22;2.70;99.90
21417;DHT22;10869;52.238;10.716;2023-02-24T16:36:49;2.70;99.90
21417;DHT22;10869;52.238;10.716;2023-02-24T16:39:16;2.70;99.90
21417;DHT22;10869;52.238;10.716;2023-02-24T16:41:42;2.70;99.90
21417;DHT22;10869;52.238;10.716;2023-02-24T16:47:32;2.80;99.90
21417;DHT22;10869;52.238;10.716;2023-02-24T16:49:58;2.70;99.90
21417;DHT22;10869;52.238;10.716;2023-02-24T16:52:24;2.70;99.90
21417;DHT22;10869;52.238;10.716;2023-02-24T16:54:50;2.70;99.90
21417;DHT22;10869;52.238;10.716;2023-02-24T17:00:39;2.80;99.90
21417;DHT22;10869;52.238;10.716;2023-02-24T17:03:54;2.80;99.90
21417;DHT22;10869;52.238;10.716;2023-02-24T17:06:00;2.80;99.90
21417;DHT22;10869;52.238;10.716;2023-02-24T17:08:26;2.80;99.90
21417;DHT22;10869;52.238;10.716;2023-02-24T17:10:52;2.80;99.90
21417;DHT22;10869;52.238;10.716;2023-02-24T17:13:19;2.80;99.90
21417;DHT22;10869;52.238;10.716;2023-02-24T17:15:46;2.80;99.90
21417;DHT22;10869;52.238;10.716;2023-02-24T17:18:12;2.80;99.90
21417;DHT22;10869;52.238;10.716;2023-02-24T17:20:39;2.80;99.90
21417;DHT22;10869;52.238;10.716;2023-02-24T17:23:05;2.80;99.90
21417;DHT22;10869;52.238;10.716;2023-02-24T17:25:31;2.80;99.90
21417;DHT22;10869;52.238;10.716;2023-02-24T17:27:58;2.80;99.90
21417;DHT22;10869;52.238;10.716;2023-02-24T17:30:29;2.90;99.90
21417;DHT22;10869;52.238;10.716;2023-02-24T17:32:55;2.90;99.90
21417;DHT22;10869;52.238;10.716;2023-02-24T17:35:22;2.90;99.90
21417;DHT22;10869;52.238;10.716;2023-02-24T17:37:49;2.90;99.90
21417;DHT22;10869;52.238;10.716;2023-02-24T17:40:16;2.90;99.90
21417;DHT22;10869;52.238;10.716;2023-02-24T17:42:42;2.90;99.90
21417;DHT22;10869;52.238;10.716;2023-02-24T17:45:10;2.90;99.90
21417;DHT22;10869;52.238;10.716;2023-02-24T17:47:36;2.90;99.90
21417;DHT22;10869;52.238;10.716;2023-02-24T17:50:05;2.90;99.90
21417;DHT22;10869;52.238;10.716;2023-02-24T17:56:01;3.00;99.90
21417;DHT22;10869;52.238;10.716;2023-02-24T17:58:27;3.00;99.90
21417;DHT22;10869;52.238;10.716;2023-02-24T18:00:53;3.00;99.90
21417;DHT22;10869;52.238;10.716;2023-02-24T18:11:08;3.10;99.90
21417;DHT22;10869;52.238;10.716;2023-02-24T18:17:02;3.10;99.90
21417;DHT22;10869;52.238;10.716;2023-02-24T18:19:31;3.10;99.90
21417;DHT22;10869;52.238;10.716;2023-02-24T18:21:57;3.10;99.90
21417;DHT22;10869;52.238;10.716;2023-02-24T18:24:23;3.10;99.90
21417;DHT22;10869;52.238;10.716;2023-02-24T18:26:52;3.10;99.90
21417;DHT22;10869;52.238;10.716;2023-02-24T18:29:18;3.10;99.90
21417;DHT22;10869;52.238;10.716;2023-02-24T18:35:06;3.10;99.90
21417;DHT22;10869;52.238;10.716;2023-02-24T18:37:32;3.10;99.90
21417;DHT22;10869;52.238;10.716;2023-02-24T18:43:20;3.20;99.90
21417;DHT22;10869;52.238;10.716;2023-02-24T18:45:46;3.10;99.90
21417;DHT22;10869;52.238;10.716;2023-02-24T18:48:12;3.10;99.90
21417;DHT22;10869;52.238;10.716;2023-02-24T18:50:37;3.10;99.90
21417;DHT22;10869;52.238;10.716;2023-02-24T18:53:03;3.10;99.90
21417;DHT22;10869;52.238;10.716;2023-02-24T18:55:34;3.10;99.90
21417;DHT22;10869;52.238;10.716;2023-02-24T18:58:00;3.20;99.90
21417;DHT22;10869;52.238;10.716;2023-02-24T19:00:26;3.20;99.90
21417;DHT22;10869;52.238;10.716;2023-02-24T19:02:52;3.20;99.90
21417;DHT22;10869;52.238;10.716;2023-02-24T19:08:20;3.20;99.90
21417;DHT22;10869;52.238;10.716;2023-02-24T19:10:46;3.20;99.90
21417;DHT22;10869;52.238;10.716;2023-02-24T19:16:35;3.30;99.90
21417;DHT22;10869;52.238;10.716;2023-02-24T19:19:01;3.30;99.90
21417;DHT22;10869;52.238;10.716;2023-02-24T19:21:28;3.30;99.90
21417;DHT22;10869;52.238;10.716;2023-02-24T19:23:59;3.30;99.90
21417;DHT22;10869;52.238;10.716;2023-02-24T19:27:02;3.30;99.90
21417;DHT22;10869;52.238;10.716;2023-02-24T19:29:42;3.30;99.90
21417;DHT22;10869;52.238;10.716;2023-02-24T19:32:08;3.30;99.90
21417;DHT22;10869;52.238;10.716;2023-02-24T19:34:35;3.30;99.90
21417;DHT22;10869;52.238;10.716;2023-02-24T19:37:01;3.30;99.90
21417;DHT22;10869;52.238;10.716;2023-02-24T19:42:50;3.30;99.90
21417;DHT22;10869;52.238;10.716;2023-02-24T19:45:18;3.30;99.90
21417;DHT22;10869;52.238;10.716;2023-02-24T19:51:17;3.40;99.90
21417;DHT22;10869;52.238;10.716;2023-02-24T20:01:30;3.40;99.90
21417;DHT22;10869;52.238;10.716;2023-02-24T20:19:47;3.40;99.90
21417;DHT22;10869;52.238;10.716;2023-02-24T20:22:29;3.40;99.90
21417;DHT22;10869;52.238;10.716;2023-02-24T20:25:16;3.30;99.90
21417;DHT22;10869;52.238;10.716;2023-02-24T20:28:01;3.30;99.90
21417;DHT22;10869;52.238;10.716;2023-02-24T20:30:26;3.30;99.90
21417;DHT22;10869;52.238;10.716;2023-02-24T20:32:55;3.20;99.90
21417;DHT22;10869;52.238;10.716;2023-02-24T20:35:21;3.30;99.90
21417;DHT22;10869;52.238;10.716;2023-02-24T20:37:50;3.30;99.90
21417;DHT22;10869;52.238;10.716;2023-02-24T20:40:17;3.30;99.90
21417;DHT22;10869;52.238;10.716;2023-02-24T20:46:18;3.40;99.90
21417;DHT22;10869;52.238;10.716;2023-02-24T20:48:44;3.40;99.90
21417;DHT22;10869;52.238;10.716;2023-02-24T20:51:10;3.40;99.90
21417;DHT22;10869;52.238;10.716;2023-02-24T20:53:37;3.30;99.90
21417;DHT22;10869;52.238;10.716;2023-02-24T20:56:07;3.30;99.90
21417;DHT22;10869;52.238;10.716;2023-02-24T20:58:37;3.30;99.90
21417;DHT22;10869;52.238;10.716;2023-02-24T22:24:00;3.30;99.90
21417;DHT22;10869;52.238;10.716;2023-02-24T22:26:28;3.30;99.90
21417;DHT22;10869;52.238;10.716;2023-02-24T22:28:58;3.30;99.90
21417;DHT22;10869;52.238;10.716;2023-02-24T22:31:26;3.30;99.90
21417;DHT22;10869;52.238;10.716;2023-02-24T22:33:53;3.30;99.90
21417;DHT22;10869;52.238;10.716;2023-02-24T22:36:23;3.30;99.90
21417;DHT22;10869;52.238;10.716;2023-02-24T22:38:50;3.30;99.90
21417;DHT22;10869;52.238;10.716;2023-02-24T22:41:18;3.40;99.90
21417;DHT22;10869;52.238;10.716;2023-02-24T22:43:45;3.30;99.90
21417;DHT22;10869;52.238;10.716;2023-02-24T22:46:23;3.30;99.90
21417;DHT22;10869;52.238;10.716;2023-02-24T22:48:50;3.30;99.90
21417;DHT22;10869;52.238;10.716;2023-02-24T22:51:17;3.30;99.90
21417;DHT22;10869;52.238;10.716;2023-02-24T22:53:46;3.30;99.90
21417;DHT22;10869;52.238;10.716;2023-02-24T22:56:15;3.30;99.90
21417;DHT22;10869;52.238;10.716;2023-02-24T22:58:41;3.30;99.90
21417;DHT22;10869;52.238;10.716;2023-02-24T23:01:14;3.30;99.90
21417;DHT22;10869;52.238;10.716;2023-02-24T23:03:43;3.30;99.90
21417;DHT22;10869;52.238;10.716;2023-02-24T23:06:16;3.30;99.90
21417;DHT22;10869;52.238;10.716;2023-02-24T23:08:44;3.30;99.90
21417;DHT22;10869;52.238;10.716;2023-02-24T23:11:17;3.30;99.90
21417;DHT22;10869;52.238;10.716;2023-02-24T23:13:48;3.30;99.90
21417;DHT22;10869;52.238;10.716;2023-02-24T23:16:20;3.30;99.90
21417;DHT22;10869;52.238;10.716;2023-02-24T23:18:46;3.30;99.90
21417;DHT22;10869;52.238;10.716;2023-02-24T23:21:20;3.30;99.90
21417;DHT22;10869;52.238;10.716;2023-02-24T23:23:47;3.20;99.90
21417;DHT22;10869;52.238;10.716;2023-02-24T23:26:14;3.20;99.90
21417;DHT22;10869;52.238;10.716;2023-02-24T23:28:42;3.20;99.90
21417;DHT22;10869;52.238;10.716;2023-02-24T23:31:09;3.20;99.90
21417;DHT22;10869;52.238;10.716;2023-02-24T23:33:34;3.20;99.90
21417;DHT22;10869;52.238;10.716;2023-02-24T23:36:05;3.20;99.90
21417;DHT22;10869;52.238;10.716;2023-02-24T23:38:32;3.30;99.90
21417;DHT22;10869;52.238;10.716;2023-02-24T23:40:58;3.30;99.90
21417;DHT22;10869;52.238;10.716;2023-02-24T23:43:24;3.30;99.90
21417;DHT22;10869;52.238;10.716;2023-02-24T23:45:50;3.30;99.90
21417;DHT22;10869;52.238;10.716;2023-02-24T23:48:16;3.30;99.90
21417;DHT22;10869;52.238;10.716;2023-02-24T23:50:42;3.20;99.90
21417;DHT22;10869;52.238;10.716;2023-02-24T23:53:10;3.30;99.90
21417;DHT22;10869;52.238;10.716;2023-02-24T23:55:39;3.30;99.90
21417;DHT22;10869;52.238;10.716;2023-02-24T23:58:05;3.30;99.90
